sensor_id;sensor_type;location;lat;lon;timestamp;pressure;altitude;pressure_sealevel;temperature;humidity
22647;BME280;11490;42.726;23.268;2023-03-03T00:00:28;95282.41;;;4.47;100.00
22647;BME280;11490;42.726;23.268;2023-03-03T00:02:57;95284.47;;;4.58;100.00
22647;BME280;11490;42.726;23.268;2023-03-03T00:05:25;95274.31;;;4.55;100.00
22647;BME280;11490;42.726;23.268;2023-03-03T00:07:50;95275.88;;;4.43;100.00
22647;BME280;11490;42.726;23.268;2023-03-03T00:10:16;95263.31;;;4.45;100.00
22647;BME280;11490;42.726;23.268;2023-03-03T00:12:47;95275.94;;;4.56;100.00
22647;BME280;11490;42.726;23.268;2023-03-03T00:15:14;95274.31;;;4.55;100.00
22647;BME280;11490;42.726;23.268;2023-03-03T00:17:40;95268.66;;;4.71;100.00
22647;BME280;11490;42.726;23.268;2023-03-03T00:20:37;95268.88;;;4.89;100.00
22647;BME280;11490;42.726;23.268;2023-03-03T00:23:19;95273.19;;;5.03;100.00
22647;BME280;11490;42.726;23.268;2023-03-03T00:25:49;95269.06;;;4.81;100.00
22647;BME280;11490;42.726;23.268;2023-03-03T00:30:44;95257.13;;;4.98;100.00
22647;BME280;11490;42.726;23.268;2023-03-03T00:33:30;95259.31;;;4.75;100.00
22647;BME280;11490;42.726;23.268;2023-03-03T00:36:37;95263.31;;;4.58;100.00
22647;BME280;11490;42.726;23.268;2023-03-03T00:39:27;95262.16;;;4.80;100.00
22647;BME280;11490;42.726;23.268;2023-03-03T00:41:55;95248.38;;;4.85;100.00
22647;BME280;11490;42.726;23.268;2023-03-03T00:44:42;95248.16;;;4.80;100.00
22647;BME280;11490;42.726;23.268;2023-03-03T00:52:37;95227.63;;;4.75;100.00
22647;BME280;11490;42.726;23.268;2023-03-03T00:55:04;95229.25;;;4.89;100.00
22647;BME280;11490;42.726;23.268;2023-03-03T00:57:30;95221.50;;;4.81;100.00
22647;BME280;11490;42.726;23.268;2023-03-03T00:59:55;95230.00;;;4.57;100.00
22647;BME280;11490;42.726;23.268;2023-03-03T01:02:21;95236.34;;;4.69;100.00
22647;BME280;11490;42.726;23.268;2023-03-03T01:04:51;95228.84;;;4.79;100.00
22647;BME280;11490;42.726;23.268;2023-03-03T01:07:17;95199.13;;;4.51;100.00
22647;BME280;11490;42.726;23.268;2023-03-03T01:09:43;95210.31;;;4.59;100.00
22647;BME280;11490;42.726;23.268;2023-03-03T01:12:10;95215.41;;;4.61;100.00
22647;BME280;11490;42.726;23.268;2023-03-03T01:14:36;95205.19;;;4.45;100.00
22647;BME280;11490;42.726;23.268;2023-03-03T01:17:02;95208.91;;;4.77;100.00
22647;BME280;11490;42.726;23.268;2023-03-03T01:19:27;95216.84;;;4.63;100.00
22647;BME280;11490;42.726;23.268;2023-03-03T01:21:53;95216.03;;;4.63;100.00
22647;BME280;11490;42.726;23.268;2023-03-03T01:24:18;95210.13;;;4.68;100.00
22647;BME280;11490;42.726;23.268;2023-03-03T01:26:44;95188.16;;;4.41;100.00
22647;BME280;11490;42.726;23.268;2023-03-03T01:29:09;95178.41;;;4.48;100.00
22647;BME280;11490;42.726;23.268;2023-03-03T01:31:35;95210.56;;;4.71;100.00
22647;BME280;11490;42.726;23.268;2023-03-03T01:34:00;95196.09;;;4.54;100.00
22647;BME280;11490;42.726;23.268;2023-03-03T01:36:27;95214.19;;;4.70;100.00
22647;BME280;11490;42.726;23.268;2023-03-03T01:38:53;95200.38;;;4.68;100.00
22647;BME280;11490;42.726;23.268;2023-03-03T01:41:19;95219.06;;;4.73;100.00
22647;BME280;11490;42.726;23.268;2023-03-03T01:43:47;95209.31;;;4.80;100.00
22647;BME280;11490;42.726;23.268;2023-03-03T01:48:58;95202.41;;;4.66;100.00
22647;BME280;11490;42.726;23.268;2023-03-03T01:51:42;95208.06;;;4.50;100.00
22647;BME280;11490;42.726;23.268;2023-03-03T01:54:21;95199.72;;;4.46;100.00
22647;BME280;11490;42.726;23.268;2023-03-03T01:56:50;95196.47;;;4.51;100.00
22647;BME280;11490;42.726;23.268;2023-03-03T01:59:20;95193.25;;;4.69;100.00
22647;BME280;11490;42.726;23.268;2023-03-03T02:01:48;95190.19;;;4.65;100.00
22647;BME280;11490;42.726;23.268;2023-03-03T02:04:14;95196.91;;;4.74;100.00
22647;BME280;11490;42.726;23.268;2023-03-03T02:06:44;95185.34;;;4.75;100.00
22647;BME280;11490;42.726;23.268;2023-03-03T02:09:26;95200.19;;;4.70;100.00
22647;BME280;11490;42.726;23.268;2023-03-03T02:12:00;95196.72;;;4.76;100.00
22647;BME280;11490;42.726;23.268;2023-03-03T02:14:27;95191.44;;;4.76;100.00
22647;BME280;11490;42.726;23.268;2023-03-03T02:16:53;95197.16;;;4.79;100.00
22647;BME280;11490;42.726;23.268;2023-03-03T02:22:47;95190.63;;;4.69;100.00
22647;BME280;11490;42.726;23.268;2023-03-03T02:25:17;95192.63;;;4.67;100.00
22647;BME280;11490;42.726;23.268;2023-03-03T02:27:46;95189.81;;;4.68;100.00
22647;BME280;11490;42.726;23.268;2023-03-03T02:30:18;95196.34;;;4.72;100.00
22647;BME280;11490;42.726;23.268;2023-03-03T02:32:44;95203.59;;;4.57;100.00
22647;BME280;11490;42.726;23.268;2023-03-03T02:46:20;95182.00;;;4.34;100.00
22647;BME280;11490;42.726;23.268;2023-03-03T02:48:46;95190.38;;;4.44;100.00
22647;BME280;11490;42.726;23.268;2023-03-03T02:51:11;95201.94;;;4.36;100.00
22647;BME280;11490;42.726;23.268;2023-03-03T02:53:37;95192.19;;;4.43;100.00
22647;BME280;11490;42.726;23.268;2023-03-03T02:56:02;95187.34;;;4.40;100.00
22647;BME280;11490;42.726;23.268;2023-03-03T02:58:29;95192.63;;;4.47;100.00
22647;BME280;11490;42.726;23.268;2023-03-03T03:00:54;95182.44;;;4.44;100.00
22647;BME280;11490;42.726;23.268;2023-03-03T03:03:21;95176.97;;;4.52;100.00
22647;BME280;11490;42.726;23.268;2023-03-03T03:05:46;95180.44;;;4.46;100.00
22647;BME280;11490;42.726;23.268;2023-03-03T03:08:11;95174.34;;;4.52;100.00
22647;BME280;11490;42.726;23.268;2023-03-03T03:10:37;95194.25;;;4.48;100.00
22647;BME280;11490;42.726;23.268;2023-03-03T03:13:02;95178.81;;;4.58;100.00
22647;BME280;11490;42.726;23.268;2023-03-03T03:15:27;95170.25;;;4.43;100.00
22647;BME280;11490;42.726;23.268;2023-03-03T03:17:53;95176.41;;;4.63;100.00
22647;BME280;11490;42.726;23.268;2023-03-03T03:20:18;95175.59;;;4.56;100.00
22647;BME280;11490;42.726;23.268;2023-03-03T03:22:44;95178.00;;;4.57;100.00
22647;BME280;11490;42.726;23.268;2023-03-03T03:25:09;95181.69;;;4.76;100.00
22647;BME280;11490;42.726;23.268;2023-03-03T03:27:35;95164.22;;;4.75;100.00
22647;BME280;11490;42.726;23.268;2023-03-03T03:30:00;95185.75;;;4.85;100.00
22647;BME280;11490;42.726;23.268;2023-03-03T03:32:25;95164.19;;;4.49;100.00
22647;BME280;11490;42.726;23.268;2023-03-03T03:34:51;95170.91;;;4.64;100.00
22647;BME280;11490;42.726;23.268;2023-03-03T03:37:16;95166.47;;;4.78;100.00
22647;BME280;11490;42.726;23.268;2023-03-03T03:39:42;95151.81;;;4.56;100.00
22647;BME280;11490;42.726;23.268;2023-03-03T03:42:07;95162.97;;;4.58;100.00
22647;BME280;11490;42.726;23.268;2023-03-03T03:44:32;95164.59;;;4.59;100.00
22647;BME280;11490;42.726;23.268;2023-03-03T03:46:58;95167.84;;;4.61;100.00
22647;BME280;11490;42.726;23.268;2023-03-03T03:49:23;95157.25;;;4.35;100.00
22647;BME280;11490;42.726;23.268;2023-03-03T03:51:49;95169.88;;;4.59;100.00
22647;BME280;11490;42.726;23.268;2023-03-03T03:54:14;95164.19;;;4.49;100.00
22647;BME280;11490;42.726;23.268;2023-03-03T03:56:39;95160.94;;;4.53;100.00
22647;BME280;11490;42.726;23.268;2023-03-03T03:59:06;95163.78;;;4.52;100.00
22647;BME280;11490;42.726;23.268;2023-03-03T04:01:32;95159.31;;;4.65;100.00
22647;BME280;11490;42.726;23.268;2023-03-03T04:03:57;95158.69;;;4.57;100.00
22647;BME280;11490;42.726;23.268;2023-03-03T04:06:23;95147.34;;;4.63;100.00
22647;BME280;11490;42.726;23.268;2023-03-03T04:08:49;95140.38;;;4.36;100.00
22647;BME280;11490;42.726;23.268;2023-03-03T04:11:14;95159.31;;;4.59;100.00
22647;BME280;11490;42.726;23.268;2023-03-03T04:13:39;95147.94;;;4.52;100.00
22647;BME280;11490;42.726;23.268;2023-03-03T04:16:05;95148.75;;;4.46;100.00
22647;BME280;11490;42.726;23.268;2023-03-03T04:18:30;95159.31;;;4.59;100.00
22647;BME280;11490;42.726;23.268;2023-03-03T04:20:55;95142.22;;;4.42;100.00
22647;BME280;11490;42.726;23.268;2023-03-03T04:23:21;95145.72;;;4.49;100.00
22647;BME280;11490;42.726;23.268;2023-03-03T04:25:47;95160.34;;;4.71;100.00
22647;BME280;11490;42.726;23.268;2023-03-03T04:28:13;95152.63;;;4.76;100.00
22647;BME280;11490;42.726;23.268;2023-03-03T04:30:39;95150.41;;;4.86;100.00
22647;BME280;11490;42.726;23.268;2023-03-03T04:33:04;95158.09;;;4.81;100.00
22647;BME280;11490;42.726;23.268;2023-03-03T04:35:30;95144.72;;;4.63;100.00
22647;BME280;11490;42.726;23.268;2023-03-03T04:37:55;95150.81;;;4.70;100.00
22647;BME280;11490;42.726;23.268;2023-03-03T04:40:21;95140.22;;;4.57;100.00
22647;BME280;11490;42.726;23.268;2023-03-03T04:42:46;95152.59;;;4.50;100.00
22647;BME280;11490;42.726;23.268;2023-03-03T04:45:12;95156.88;;;4.51;100.00
22647;BME280;11490;42.726;23.268;2023-03-03T04:47:37;95153.22;;;4.65;100.00
22647;BME280;11490;42.726;23.268;2023-03-03T04:50:03;95150.81;;;4.70;100.00
22647;BME280;11490;42.726;23.268;2023-03-03T04:52:29;95144.09;;;4.87;100.00
22647;BME280;11490;42.726;23.268;2023-03-03T04:54:54;95151.63;;;4.77;100.00
22647;BME280;11490;42.726;23.268;2023-03-03T04:57:20;95154.06;;;4.72;100.00
22647;BME280;11490;42.726;23.268;2023-03-03T04:59:45;95153.84;;;4.54;100.00
22647;BME280;11490;42.726;23.268;2023-03-03T05:02:10;95166.41;;;4.39;100.00
22647;BME280;11490;42.726;23.268;2023-03-03T05:04:37;95120.28;;;4.21;100.00
22647;BME280;11490;42.726;23.268;2023-03-03T05:07:03;95160.56;;;4.70;100.00
22647;BME280;11490;42.726;23.268;2023-03-03T05:09:29;95166.63;;;4.57;100.00
22647;BME280;11490;42.726;23.268;2023-03-03T05:11:54;95152.78;;;4.42;100.00
22647;BME280;11490;42.726;23.268;2023-03-03T05:14:19;95157.69;;;4.58;100.00
22647;BME280;11490;42.726;23.268;2023-03-03T05:16:45;95153.00;;;4.47;100.00
22647;BME280;11490;42.726;23.268;2023-03-03T05:19:11;95171.91;;;4.57;100.00
22647;BME280;11490;42.726;23.268;2023-03-03T05:21:37;95170.31;;;4.69;100.00
22647;BME280;11490;42.726;23.268;2023-03-03T05:24:07;95135.78;;;4.64;100.00
22647;BME280;11490;42.726;23.268;2023-03-03T05:26:32;95154.88;;;4.92;100.00
22647;BME280;11490;42.726;23.268;2023-03-03T05:28:58;95161.75;;;4.80;100.00
22647;BME280;11490;42.726;23.268;2023-03-03T05:31:23;95156.06;;;4.90;100.00
22647;BME280;11490;42.726;23.268;2023-03-03T05:33:51;95171.53;;;4.86;100.00
22647;BME280;11490;42.726;23.268;2023-03-03T05:36:16;95156.47;;;4.67;100.00
22647;BME280;11490;42.726;23.268;2023-03-03T05:38:42;95155.47;;;4.68;100.00
22647;BME280;11490;42.726;23.268;2023-03-03T05:41:07;95169.50;;;4.75;100.00
22647;BME280;11490;42.726;23.268;2023-03-03T05:43:33;95150.38;;;4.60;100.00
22647;BME280;11490;42.726;23.268;2023-03-03T05:45:58;95145.91;;;4.41;100.00
22647;BME280;11490;42.726;23.268;2023-03-03T05:48:24;95175.38;;;4.77;100.00
22647;BME280;11490;42.726;23.268;2023-03-03T05:50:49;95173.38;;;4.92;100.00
22647;BME280;11490;42.726;23.268;2023-03-03T05:53:18;95155.69;;;4.86;100.00
22647;BME280;11490;42.726;23.268;2023-03-03T05:55:43;95180.88;;;4.82;100.00
22647;BME280;11490;42.726;23.268;2023-03-03T05:58:09;95178.41;;;4.61;100.00
22647;BME280;11490;42.726;23.268;2023-03-03T06:00:36;95169.50;;;4.62;100.00
22647;BME280;11490;42.726;23.268;2023-03-03T06:03:01;95175.53;;;4.43;100.00
22647;BME280;11490;42.726;23.268;2023-03-03T06:05:28;95181.50;;;4.64;100.00
22647;BME280;11490;42.726;23.268;2023-03-03T06:07:53;95175.38;;;4.64;100.00
22647;BME280;11490;42.726;23.268;2023-03-03T06:10:18;95179.00;;;4.43;100.00
22647;BME280;11490;42.726;23.268;2023-03-03T06:12:44;95162.94;;;4.32;100.00
22647;BME280;11490;42.726;23.268;2023-03-03T06:15:09;95169.69;;;4.60;100.00
22647;BME280;11490;42.726;23.268;2023-03-03T06:17:35;95181.88;;;4.68;100.00
22647;BME280;11490;42.726;23.268;2023-03-03T06:20:00;95169.50;;;4.62;100.00
22647;BME280;11490;42.726;23.268;2023-03-03T06:22:26;95182.06;;;4.73;100.00
22647;BME280;11490;42.726;23.268;2023-03-03T06:24:51;95188.19;;;4.67;100.00
22647;BME280;11490;42.726;23.268;2023-03-03T06:27:17;95186.34;;;4.61;100.00
22647;BME280;11490;42.726;23.268;2023-03-03T06:29:43;95173.34;;;4.66;100.00
22647;BME280;11490;42.726;23.268;2023-03-03T06:32:09;95182.47;;;4.57;100.00
22647;BME280;11490;42.726;23.268;2023-03-03T06:34:34;95165.84;;;4.70;100.00
22647;BME280;11490;42.726;23.268;2023-03-03T06:37:00;95188.59;;;4.64;100.00
22647;BME280;11490;42.726;23.268;2023-03-03T06:39:25;95193.06;;;4.83;100.00
22647;BME280;11490;42.726;23.268;2023-03-03T06:41:50;95184.94;;;4.85;100.00
22647;BME280;11490;42.726;23.268;2023-03-03T06:44:16;95190.63;;;4.62;100.00
22647;BME280;11490;42.726;23.268;2023-03-03T06:46:41;95161.75;;;4.60;100.00
22647;BME280;11490;42.726;23.268;2023-03-03T06:49:07;95167.03;;;4.80;100.00
22647;BME280;11490;42.726;23.268;2023-03-03T06:51:34;95198.94;;;4.65;100.00
22647;BME280;11490;42.726;23.268;2023-03-03T06:54:29;95199.16;;;4.77;100.00
22647;BME280;11490;42.726;23.268;2023-03-03T06:57:00;95191.81;;;4.66;100.00
22647;BME280;11490;42.726;23.268;2023-03-03T06:59:28;95200.75;;;4.65;100.00
22647;BME280;11490;42.726;23.268;2023-03-03T07:01:53;95200.00;;;4.84;100.00
22647;BME280;11490;42.726;23.268;2023-03-03T07:04:32;95191.03;;;4.92;100.00
22647;BME280;11490;42.726;23.268;2023-03-03T07:07:06;95208.31;;;5.08;100.00
22647;BME280;11490;42.726;23.268;2023-03-03T07:09:32;95194.28;;;5.27;100.00
22647;BME280;11490;42.726;23.268;2023-03-03T07:12:05;95195.53;;;5.18;100.00
22647;BME280;11490;42.726;23.268;2023-03-03T07:14:40;95204.84;;;5.27;100.00
22647;BME280;11490;42.726;23.268;2023-03-03T07:17:27;95191.81;;;5.45;100.00
22647;BME280;11490;42.726;23.268;2023-03-03T07:19:52;95201.94;;;5.68;100.00
22647;BME280;11490;42.726;23.268;2023-03-03T07:22:20;95199.94;;;5.50;100.00
22647;BME280;11490;42.726;23.268;2023-03-03T07:24:49;95197.50;;;5.42;100.00
22647;BME280;11490;42.726;23.268;2023-03-03T07:27:22;95209.72;;;5.43;100.00
22647;BME280;11490;42.726;23.268;2023-03-03T07:29:51;95193.47;;;5.20;100.00
22647;BME280;11490;42.726;23.268;2023-03-03T07:32:39;95207.28;;;5.28;100.00
22647;BME280;11490;42.726;23.268;2023-03-03T07:37:54;95193.88;;;5.30;100.00
22647;BME280;11490;42.726;23.268;2023-03-03T07:42:57;95185.91;;;5.43;100.00
22647;BME280;11490;42.726;23.268;2023-03-03T07:45:29;95201.97;;;5.61;100.00
22647;BME280;11490;42.726;23.268;2023-03-03T07:48:25;95201.16;;;5.54;100.00
22647;BME280;11490;42.726;23.268;2023-03-03T07:50:53;95198.72;;;5.59;100.00
22647;BME280;11490;42.726;23.268;2023-03-03T07:53:29;95176.78;;;5.39;100.00
22647;BME280;11490;42.726;23.268;2023-03-03T07:55:59;95184.91;;;5.57;100.00
22647;BME280;11490;42.726;23.268;2023-03-03T07:58:57;95193.00;;;5.69;100.00
22647;BME280;11490;42.726;23.268;2023-03-03T08:01:34;95188.56;;;5.56;100.00
22647;BME280;11490;42.726;23.268;2023-03-03T08:04:18;95193.84;;;5.56;100.00
22647;BME280;11490;42.726;23.268;2023-03-03T08:06:58;95167.19;;;5.45;100.00
22647;BME280;11490;42.726;23.268;2023-03-03T08:09:43;95183.41;;;5.74;100.00
22647;BME280;11490;42.726;23.268;2023-03-03T08:14:55;95178.72;;;5.76;100.00
22647;BME280;11490;42.726;23.268;2023-03-03T08:17:24;95171.47;;;5.52;100.00
22647;BME280;11490;42.726;23.268;2023-03-03T08:19:54;95171.84;;;5.62;100.00
22647;BME280;11490;42.726;23.268;2023-03-03T08:22:34;95173.84;;;5.80;100.00
22647;BME280;11490;42.726;23.268;2023-03-03T08:25:03;95162.44;;;5.79;100.00
22647;BME280;11490;42.726;23.268;2023-03-03T08:27:28;95181.59;;;5.68;100.00
22647;BME280;11490;42.726;23.268;2023-03-03T08:29:54;95177.31;;;5.80;100.00
22647;BME280;11490;42.726;23.268;2023-03-03T08:32:19;95179.91;;;5.94;100.00
22647;BME280;11490;42.726;23.268;2023-03-03T08:34:50;95133.72;;;5.19;100.00
22647;BME280;11490;42.726;23.268;2023-03-03T08:37:18;95166.78;;;5.54;100.00
22647;BME280;11490;42.726;23.268;2023-03-03T08:39:45;95147.50;;;5.27;100.00
22647;BME280;11490;42.726;23.268;2023-03-03T08:42:11;95175.75;;;5.40;100.00
22647;BME280;11490;42.726;23.268;2023-03-03T08:44:36;95167.34;;;5.69;100.00
22647;BME280;11490;42.726;23.268;2023-03-03T08:47:01;95140.56;;;5.46;100.00
22647;BME280;11490;42.726;23.268;2023-03-03T08:49:27;95173.97;;;6.05;100.00
22647;BME280;11490;42.726;23.268;2023-03-03T08:51:52;95164.03;;;5.94;100.00
22647;BME280;11490;42.726;23.268;2023-03-03T08:54:18;95133.31;;;5.79;100.00
22647;BME280;11490;42.726;23.268;2023-03-03T08:56:44;95168.91;;;5.97;100.00
22647;BME280;11490;42.726;23.268;2023-03-03T08:59:09;95161.53;;;6.05;100.00
22647;BME280;11490;42.726;23.268;2023-03-03T09:01:37;95166.38;;;6.15;100.00
22647;BME280;11490;42.726;23.268;2023-03-03T09:04:03;95169.00;;;6.22;100.00
22647;BME280;11490;42.726;23.268;2023-03-03T09:06:28;95154.25;;;5.81;100.00
22647;BME280;11490;42.726;23.268;2023-03-03T09:08:54;95164.66;;;5.96;100.00
22647;BME280;11490;42.726;23.268;2023-03-03T09:11:24;95168.84;;;6.10;100.00
22647;BME280;11490;42.726;23.268;2023-03-03T09:14:13;95171.84;;;6.20;100.00
22647;BME280;11490;42.726;23.268;2023-03-03T09:16:50;95153.44;;;5.94;100.00
22647;BME280;11490;42.726;23.268;2023-03-03T09:19:34;95164.75;;;6.14;100.00
22647;BME280;11490;42.726;23.268;2023-03-03T09:22:17;95160.31;;;6.08;100.00
22647;BME280;11490;42.726;23.268;2023-03-03T09:24:43;95168.41;;;6.13;100.00
22647;BME280;11490;42.726;23.268;2023-03-03T09:27:17;95165.41;;;6.47;100.00
22647;BME280;11490;42.726;23.268;2023-03-03T09:29:44;95161.41;;;6.32;100.00
22647;BME280;11490;42.726;23.268;2023-03-03T09:32:34;95185.22;;;6.38;100.00
22647;BME280;11490;42.726;23.268;2023-03-03T09:37:54;95167.88;;;6.42;100.00
22647;BME280;11490;42.726;23.268;2023-03-03T09:48:43;95170.34;;;6.37;100.00
22647;BME280;11490;42.726;23.268;2023-03-03T09:51:31;95181.41;;;6.66;100.00
22647;BME280;11490;42.726;23.268;2023-03-03T09:54:29;95166.41;;;6.78;100.00
22647;BME280;11490;42.726;23.268;2023-03-03T09:57:07;95168.91;;;6.41;100.00
22647;BME280;11490;42.726;23.268;2023-03-03T10:10:24;95144.41;;;6.77;100.00
22647;BME280;11490;42.726;23.268;2023-03-03T10:15:58;95160.34;;;7.20;100.00
22647;BME280;11490;42.726;23.268;2023-03-03T10:18:42;95165.63;;;7.02;100.00
22647;BME280;11490;42.726;23.268;2023-03-03T10:21:22;95141.97;;;6.76;100.00
22647;BME280;11490;42.726;23.268;2023-03-03T10:34:58;95139.56;;;7.60;100.00
22647;BME280;11490;42.726;23.268;2023-03-03T10:40:10;95154.09;;;7.76;99.67
22647;BME280;11490;42.726;23.268;2023-03-03T10:51:15;95125.94;;;7.57;97.94
22647;BME280;11490;42.726;23.268;2023-03-03T10:56:58;95133.44;;;7.78;98.90
22647;BME280;11490;42.726;23.268;2023-03-03T10:59:36;95131.28;;;7.68;96.37
22647;BME280;11490;42.726;23.268;2023-03-03T11:02:16;95104.78;;;7.50;97.89
22647;BME280;11490;42.726;23.268;2023-03-03T11:05:04;95138.31;;;7.81;97.77
22647;BME280;11490;42.726;23.268;2023-03-03T11:07:43;95133.75;;;7.70;97.42
22647;BME280;11490;42.726;23.268;2023-03-03T11:12:51;95124.00;;;7.64;100.00
22647;BME280;11490;42.726;23.268;2023-03-03T11:23:59;95108.38;;;7.74;98.78
22647;BME280;11490;42.726;23.268;2023-03-03T11:26:39;95109.59;;;7.90;100.00
22647;BME280;11490;42.726;23.268;2023-03-03T11:29:31;95102.28;;;8.03;100.00
22647;BME280;11490;42.726;23.268;2023-03-03T11:37:09;95099.56;;;7.92;100.00
22647;BME280;11490;42.726;23.268;2023-03-03T11:39:36;95098.91;;;7.96;100.00
22647;BME280;11490;42.726;23.268;2023-03-03T11:42:25;95103.53;;;8.01;100.00
22647;BME280;11490;42.726;23.268;2023-03-03T11:44:59;95095.97;;;8.04;100.00
22647;BME280;11490;42.726;23.268;2023-03-03T11:50:42;95099.03;;;8.01;100.00
22647;BME280;11490;42.726;23.268;2023-03-03T11:53:23;95097.00;;;8.03;100.00
22647;BME280;11490;42.726;23.268;2023-03-03T11:55:55;95085.03;;;8.13;100.00
22647;BME280;11490;42.726;23.268;2023-03-03T11:58:53;95090.91;;;8.15;100.00
22647;BME280;11490;42.726;23.268;2023-03-03T12:03:55;95097.19;;;8.20;100.00
22647;BME280;11490;42.726;23.268;2023-03-03T12:09:41;95079.84;;;7.99;100.00
22647;BME280;11490;42.726;23.268;2023-03-03T12:20:27;95074.81;;;7.80;100.00
22647;BME280;11490;42.726;23.268;2023-03-03T12:25:49;95078.13;;;7.75;100.00
22647;BME280;11490;42.726;23.268;2023-03-03T12:28:23;95083.00;;;7.78;100.00
22647;BME280;11490;42.726;23.268;2023-03-03T12:33:53;95075.63;;;7.80;100.00
22647;BME280;11490;42.726;23.268;2023-03-03T12:39:16;95101.00;;;7.76;100.00
22647;BME280;11490;42.726;23.268;2023-03-03T12:45:27;95101.72;;;7.83;100.00
22647;BME280;11490;42.726;23.268;2023-03-03T12:47:50;95100.94;;;7.64;100.00
22647;BME280;11490;42.726;23.268;2023-03-03T12:50:42;95081.84;;;7.38;100.00
22647;BME280;11490;42.726;23.268;2023-03-03T12:56:05;95096.13;;;7.37;100.00
22647;BME280;11490;42.726;23.268;2023-03-03T12:59:00;95097.31;;;7.41;100.00
22647;BME280;11490;42.726;23.268;2023-03-03T13:12:35;95082.84;;;7.37;100.00
22647;BME280;11490;42.726;23.268;2023-03-03T13:15:23;95092.00;;;7.41;100.00
22647;BME280;11490;42.726;23.268;2023-03-03T13:17:58;95087.28;;;7.24;100.00
22647;BME280;11490;42.726;23.268;2023-03-03T13:23:34;95068.66;;;7.49;100.00
22647;BME280;11490;42.726;23.268;2023-03-03T13:26:06;95084.34;;;7.69;100.00
22647;BME280;11490;42.726;23.268;2023-03-03T13:28:41;95083.00;;;7.78;100.00
22647;BME280;11490;42.726;23.268;2023-03-03T13:31:14;95077.50;;;7.91;100.00
22647;BME280;11490;42.726;23.268;2023-03-03T13:34:09;95073.09;;;7.85;100.00
22647;BME280;11490;42.726;23.268;2023-03-03T13:36:58;95072.22;;;7.91;100.00
22647;BME280;11490;42.726;23.268;2023-03-03T13:39:29;95076.78;;;8.02;100.00
22647;BME280;11490;42.726;23.268;2023-03-03T13:44:34;95074.78;;;7.98;100.00
22647;BME280;11490;42.726;23.268;2023-03-03T13:47:15;95071.34;;;7.97;100.00
22647;BME280;11490;42.726;23.268;2023-03-03T13:52:27;95069.00;;;7.89;100.00
22647;BME280;11490;42.726;23.268;2023-03-03T13:57:37;95070.84;;;7.89;100.00
22647;BME280;11490;42.726;23.268;2023-03-03T14:00:43;95077.25;;;7.81;100.00
22647;BME280;11490;42.726;23.268;2023-03-03T14:03:26;95070.97;;;7.94;100.00
22647;BME280;11490;42.726;23.268;2023-03-03T14:14:34;95071.88;;;7.69;100.00
22647;BME280;11490;42.726;23.268;2023-03-03T14:17:20;95079.19;;;7.56;100.00
22647;BME280;11490;42.726;23.268;2023-03-03T14:22:37;95072.25;;;7.73;100.00
22647;BME280;11490;42.726;23.268;2023-03-03T14:25:14;95055.44;;;7.61;100.00
22647;BME280;11490;42.726;23.268;2023-03-03T14:33:32;95013.88;;;7.55;100.00
22647;BME280;11490;42.726;23.268;2023-03-03T14:43:38;95056.88;;;7.75;100.00
22647;BME280;11490;42.726;23.268;2023-03-03T14:48:53;95048.38;;;7.55;100.00
22647;BME280;11490;42.726;23.268;2023-03-03T14:51:25;95057.06;;;7.62;100.00
22647;BME280;11490;42.726;23.268;2023-03-03T14:53:54;95035.13;;;7.18;100.00
22647;BME280;11490;42.726;23.268;2023-03-03T14:56:28;95047.19;;;7.14;100.00
22647;BME280;11490;42.726;23.268;2023-03-03T15:01:43;95053.25;;;7.40;100.00
22647;BME280;11490;42.726;23.268;2023-03-03T15:09:33;95055.53;;;7.54;100.00
22647;BME280;11490;42.726;23.268;2023-03-03T15:12:23;95040.03;;;7.51;100.00
22647;BME280;11490;42.726;23.268;2023-03-03T15:17:35;95042.31;;;7.66;100.00
22647;BME280;11490;42.726;23.268;2023-03-03T15:25:32;95049.81;;;7.69;100.00
22647;BME280;11490;42.726;23.268;2023-03-03T15:31:12;95048.38;;;7.73;100.00
22647;BME280;11490;42.726;23.268;2023-03-03T15:37:13;95058.22;;;7.84;100.00
22647;BME280;11490;42.726;23.268;2023-03-03T15:42:15;95063.31;;;7.86;100.00
22647;BME280;11490;42.726;23.268;2023-03-03T15:45:00;95054.81;;;7.77;100.00
22647;BME280;11490;42.726;23.268;2023-03-03T15:47:57;95064.72;;;7.70;100.00
22647;BME280;11490;42.726;23.268;2023-03-03T16:04:07;95035.34;;;7.35;100.00
22647;BME280;11490;42.726;23.268;2023-03-03T16:14:53;95078.88;;;7.46;100.00
22647;BME280;11490;42.726;23.268;2023-03-03T16:17:26;95086.25;;;7.25;100.00
22647;BME280;11490;42.726;23.268;2023-03-03T16:20:02;95077.19;;;7.33;100.00
22647;BME280;11490;42.726;23.268;2023-03-03T16:22:33;95088.59;;;7.52;100.00
22647;BME280;11490;42.726;23.268;2023-03-03T16:33:22;95089.66;;;7.32;100.00
22647;BME280;11490;42.726;23.268;2023-03-03T16:36:01;95079.34;;;7.43;100.00
22647;BME280;11490;42.726;23.268;2023-03-03T16:38:31;95093.41;;;7.61;100.00
22647;BME280;11490;42.726;23.268;2023-03-03T16:41:00;95092.75;;;7.48;100.00
22647;BME280;11490;42.726;23.268;2023-03-03T16:46:24;95110.91;;;7.51;100.00
22647;BME280;11490;42.726;23.268;2023-03-03T16:54:10;95108.25;;;7.51;100.00
22647;BME280;11490;42.726;23.268;2023-03-03T16:56:51;;;;7.40;
22647;BME280;11490;42.726;23.268;2023-03-03T16:59:44;95125.47;;;7.42;100.00
22647;BME280;11490;42.726;23.268;2023-03-03T17:02:21;95122.66;;;7.37;100.00
22647;BME280;11490;42.726;23.268;2023-03-03T17:04:55;95107.47;;;7.44;100.00
22647;BME280;11490;42.726;23.268;2023-03-03T17:10:24;95126.97;;;7.56;100.00
22647;BME280;11490;42.726;23.268;2023-03-03T17:24:33;95136.34;;;7.58;100.00
22647;BME280;11490;42.726;23.268;2023-03-03T17:30:13;95132.41;;;7.43;100.00
22647;BME280;11490;42.726;23.268;2023-03-03T17:32:54;95137.66;;;7.49;100.00